Time;durP1;ratioP1;P1;durP2;ratioP2;P2;SDS_P1;SDS_P2;PMS_P1;PMS_P2;Temp;Humidity;BMP_temperature;BMP_pressure;BME280_temperature;BME280_humidity;BME280_pressure;Samples;Min_cycle;Max_cycle;Signal;HPM_P1;HPM_P2
2022/10/22 00:00:17;;;;;;;15.57;11.87;;;11.60;99.90;;;;;;8405301;28;20208;-69
2022/10/22 00:04:17;;;;;;;13.67;11.67;;;11.60;99.90;;;;;;8396947;28;20216;-69
2022/10/22 00:08:18;;;;;;;15.60;11.43;;;11.60;99.90;;;;;;8411482;28;20195;-70
2022/10/22 00:12:20;;;;;;;12.53;10.87;;;11.60;99.90;;;;;;8394265;28;20355;-69
2022/10/22 00:16:20;;;;;;;12.93;11.53;;;11.60;99.90;;;;;;8413222;28;20522;-69
2022/10/22 00:20:21;;;;;;;15.00;13.37;;;11.60;99.90;;;;;;8413617;28;20184;-69
2022/10/22 00:24:22;;;;;;;17.27;12.80;;;11.60;99.90;;;;;;8413426;28;20247;-68
2022/10/22 00:28:23;;;;;;;14.67;11.93;;;11.60;99.90;;;;;;8395307;28;20184;-68
2022/10/22 00:32:24;;;;;;;12.70;10.90;;;11.50;99.90;;;;;;8396526;28;20199;-69
2022/10/22 00:36:25;;;;;;;12.63;10.80;;;11.40;99.90;;;;;;8395047;28;20189;-69
2022/10/22 00:40:26;;;;;;;13.33;10.63;;;11.30;99.90;;;;;;8414099;28;20184;-69
2022/10/22 00:45:04;;;;;;;12.33;10.87;;;11.20;99.90;;;;;;8411758;28;20208;-70
2022/10/22 00:49:05;;;;;;;12.17;10.37;;;11.10;99.90;;;;;;8391228;28;20272;-70
2022/10/22 00:53:11;;;;;;;14.10;11.00;;;11.00;99.90;;;;;;8391952;28;20184;-68
2022/10/22 00:57:12;;;;;;;12.93;9.97;;;11.00;99.90;;;;;;8392151;28;20220;-69
2022/10/22 01:01:16;;;;;;;13.73;11.47;;;10.90;99.90;;;;;;8409941;28;20542;-69
2022/10/22 01:05:17;;;;;;;13.50;11.60;;;10.80;99.90;;;;;;8404021;28;20180;-69
2022/10/22 01:10:00;;;;;;;17.40;14.10;;;10.70;99.90;;;;;;8409120;28;20188;-69
2022/10/22 01:14:17;;;;;;;19.60;14.93;;;10.70;99.90;;;;;;8376229;28;20234;-69
2022/10/22 01:18:21;;;;;;;18.90;14.33;;;10.70;99.90;;;;;;8391217;28;20219;-69
2022/10/22 01:22:39;;;;;;;15.63;13.33;;;10.70;99.90;;;;;;8391641;28;20270;-68
2022/10/22 01:26:59;;;;;;;17.33;14.47;;;10.60;99.90;;;;;;8393525;28;20188;-70
2022/10/22 01:31:02;;;;;;;18.07;13.43;;;10.60;99.90;;;;;;8393627;28;20271;-69
2022/10/22 01:35:07;;;;;;;16.77;13.63;;;10.60;99.90;;;;;;8408227;28;20207;-69
2022/10/22 01:39:09;;;;;;;17.47;13.30;;;10.50;99.90;;;;;;8413130;28;20195;-69
2022/10/22 01:43:11;;;;;;;19.53;13.80;;;10.50;99.90;;;;;;8393040;28;20303;-69
2022/10/22 01:47:42;;;;;;;22.37;14.60;;;10.40;99.90;;;;;;8410765;28;20191;-69
2022/10/22 01:51:46;;;;;;;18.07;13.00;;;10.40;99.90;;;;;;8411960;28;20196;-69
2022/10/22 01:55:53;;;;;;;15.87;12.73;;;10.30;99.90;;;;;;8401984;28;20337;-70
2022/10/22 02:00:06;;;;;;;19.03;13.80;;;10.30;99.90;;;;;;8389677;28;20214;-68
2022/10/22 02:04:24;;;;;;;15.23;12.63;;;10.30;99.90;;;;;;8409421;28;20261;-69
2022/10/22 02:08:31;;;;;;;20.60;14.17;;;10.20;99.90;;;;;;8393493;28;20184;-69
2022/10/22 02:12:34;;;;;;;19.10;14.20;;;10.30;99.90;;;;;;8397271;28;20192;-70
2022/10/22 02:16:42;;;;;;;21.23;14.27;;;10.30;99.90;;;;;;8411114;28;20184;-69
2022/10/22 02:20:43;;;;;;;19.10;14.23;;;10.40;99.90;;;;;;8408721;28;20289;-69
2022/10/22 02:24:45;;;;;;;18.30;14.10;;;10.50;99.90;;;;;;8392667;28;20218;-69
2022/10/22 02:28:56;;;;;;;16.20;13.50;;;10.60;99.90;;;;;;8409818;28;20180;-70
2022/10/22 02:33:13;;;;;;;20.07;13.70;;;10.60;99.90;;;;;;8411873;28;20214;-69
2022/10/22 02:37:14;;;;;;;19.73;14.00;;;10.70;99.90;;;;;;8409081;28;20223;-70
2022/10/22 02:41:17;;;;;;;15.33;12.77;;;10.70;99.90;;;;;;8413125;28;20196;-69
2022/10/22 02:45:19;;;;;;;15.23;12.83;;;10.80;99.90;;;;;;8393664;28;20187;-69
2022/10/22 02:49:20;;;;;;;16.33;13.17;;;10.80;99.90;;;;;;8392939;28;20204;-69
2022/10/22 02:53:20;;;;;;;14.70;12.37;;;10.80;99.90;;;;;;8392297;28;20192;-69
2022/10/22 02:57:21;;;;;;;15.43;12.40;;;10.80;99.90;;;;;;8407563;28;20530;-70
2022/10/22 03:01:22;;;;;;;19.00;13.13;;;10.80;99.90;;;;;;8397286;28;20238;-73
2022/10/22 03:05:23;;;;;;;15.73;12.27;;;10.80;99.90;;;;;;8396439;28;20581;-70
2022/10/22 03:09:24;;;;;;;16.70;12.00;;;10.80;99.90;;;;;;8414037;28;20216;-69
2022/10/22 03:13:24;;;;;;;15.50;12.43;;;10.80;99.90;;;;;;8416549;28;20188;-69
2022/10/22 03:17:25;;;;;;;16.10;12.53;;;10.80;99.90;;;;;;8411177;28;20173;-69
2022/10/22 03:21:53;;;;;;;14.27;12.33;;;10.80;99.90;;;;;;8397392;28;20311;-69
2022/10/22 03:25:54;;;;;;;14.63;11.27;;;10.80;99.90;;;;;;8389189;28;20229;-70
2022/10/22 03:29:56;;;;;;;17.60;12.90;;;10.80;99.90;;;;;;8415704;28;20179;-71
2022/10/22 03:33:57;;;;;;;12.93;10.57;;;10.80;99.90;;;;;;8414765;28;20187;-69
2022/10/22 03:38:00;;;;;;;13.53;11.73;;;10.80;99.90;;;;;;8398059;28;20186;-69
2022/10/22 03:42:02;;;;;;;13.80;10.63;;;10.80;99.90;;;;;;8414032;28;20196;-69
2022/10/22 03:46:03;;;;;;;15.43;11.03;;;10.70;99.90;;;;;;8414884;28;20268;-69
2022/10/22 03:50:04;;;;;;;16.73;12.20;;;10.70;99.90;;;;;;8415604;28;20180;-69
2022/10/22 03:54:05;;;;;;;16.43;12.23;;;10.70;99.90;;;;;;8415572;28;20204;-69
2022/10/22 03:58:06;;;;;;;15.60;11.57;;;10.70;99.90;;;;;;8411168;28;20209;-69
2022/10/22 04:02:08;;;;;;;17.00;12.00;;;10.70;99.90;;;;;;8395904;28;20216;-69
2022/10/22 04:06:11;;;;;;;18.33;11.73;;;10.70;99.90;;;;;;8415829;28;20180;-71
2022/10/22 04:10:12;;;;;;;15.67;12.77;;;10.70;99.90;;;;;;8412303;28;20180;-69
2022/10/22 04:14:13;;;;;;;16.63;11.67;;;10.70;99.90;;;;;;8414421;28;20317;-70
2022/10/22 04:18:14;;;;;;;18.20;12.37;;;10.80;99.90;;;;;;8414076;28;20194;-69
2022/10/22 04:22:15;;;;;;;15.83;11.43;;;10.80;99.90;;;;;;8413198;28;20200;-70
2022/10/22 04:26:17;;;;;;;14.87;12.10;;;10.90;99.90;;;;;;8394504;28;20175;-69
2022/10/22 04:30:17;;;;;;;15.57;12.23;;;10.90;99.90;;;;;;8409965;28;20183;-70
2022/10/22 04:34:18;;;;;;;15.50;11.97;;;10.90;99.90;;;;;;8395918;28;20181;-70
2022/10/22 04:38:19;;;;;;;17.33;11.63;;;11.00;99.90;;;;;;8396278;28;20192;-69
2022/10/22 04:42:20;;;;;;;18.93;12.93;;;11.00;99.90;;;;;;8415765;28;20724;-70
2022/10/22 04:46:22;;;;;;;16.47;11.73;;;11.10;99.90;;;;;;8395669;28;20353;-69
2022/10/22 04:50:23;;;;;;;16.67;12.27;;;11.10;99.90;;;;;;8413235;28;20187;-70
2022/10/22 04:54:24;;;;;;;16.27;11.27;;;11.10;99.90;;;;;;8415207;28;20212;-70
2022/10/22 04:58:24;;;;;;;15.27;10.60;;;11.20;99.90;;;;;;8411126;28;20204;-70
2022/10/22 05:02:25;;;;;;;14.27;11.23;;;11.20;99.90;;;;;;8411464;28;20257;-69
2022/10/22 05:06:27;;;;;;;18.30;11.53;;;11.20;99.90;;;;;;8413720;28;20214;-70
2022/10/22 05:10:28;;;;;;;16.83;11.53;;;11.20;99.90;;;;;;8411584;28;20230;-69
2022/10/22 05:14:29;;;;;;;14.67;10.83;;;11.20;99.90;;;;;;8392052;28;20184;-70
2022/10/22 05:18:29;;;;;;;27.17;12.80;;;11.20;99.90;;;;;;8393967;28;20189;-70
2022/10/22 05:22:30;;;;;;;14.80;11.13;;;11.20;99.90;;;;;;8411785;28;20208;-70
2022/10/22 05:26:31;;;;;;;17.70;12.17;;;11.20;99.90;;;;;;8394074;28;20188;-70
2022/10/22 05:30:32;;;;;;;15.70;10.57;;;11.20;99.90;;;;;;8412112;28;20429;-70
2022/10/22 05:34:34;;;;;;;17.77;12.27;;;11.20;99.90;;;;;;8408654;28;20189;-70
2022/10/22 05:38:36;;;;;;;18.60;11.13;;;11.30;99.90;;;;;;8392993;28;20189;-69
2022/10/22 05:42:36;;;;;;;16.50;11.53;;;11.30;99.90;;;;;;8414374;28;20243;-70
2022/10/22 05:46:37;;;;;;;19.47;12.27;;;11.30;99.90;;;;;;8414510;28;20173;-70
2022/10/22 05:50:38;;;;;;;15.83;11.57;;;11.40;99.90;;;;;;8413048;28;20453;-68
2022/10/22 05:54:39;;;;;;;13.97;11.10;;;11.40;99.90;;;;;;8395877;28;20196;-70
2022/10/22 05:58:41;;;;;;;16.10;9.93;;;11.50;99.90;;;;;;8409265;28;20204;-69
2022/10/22 06:02:42;;;;;;;18.10;12.10;;;11.50;99.90;;;;;;8393444;28;20223;-71
2022/10/22 06:06:48;;;;;;;17.77;11.50;;;11.60;99.90;;;;;;8393920;28;20196;-70
2022/10/22 06:10:49;;;;;;;15.73;11.33;;;11.70;99.90;;;;;;8392470;28;20177;-69
2022/10/22 06:14:50;;;;;;;17.67;11.77;;;11.90;99.90;;;;;;8413607;28;20208;-71
2022/10/22 06:18:51;;;;;;;18.30;11.80;;;12.00;99.90;;;;;;8411460;28;20173;-72
2022/10/22 06:22:52;;;;;;;17.53;11.17;;;12.10;99.90;;;;;;8394891;28;20234;-70
2022/10/22 06:26:53;;;;;;;19.23;11.83;;;12.10;99.90;;;;;;8411276;28;20215;-70
2022/10/22 06:30:53;;;;;;;15.13;10.07;;;12.20;99.90;;;;;;8394602;28;20177;-70
2022/10/22 06:34:54;;;;;;;18.47;11.37;;;12.20;99.90;;;;;;8414321;28;20185;-70
2022/10/22 06:38:56;;;;;;;17.60;11.13;;;12.30;99.90;;;;;;8399128;28;20218;-70
2022/10/22 06:42:59;;;;;;;20.00;11.23;;;12.40;99.90;;;;;;8420778;28;20193;-70
2022/10/22 06:46:59;;;;;;;16.17;9.80;;;12.40;99.90;;;;;;8416125;28;20204;-70
2022/10/22 06:51:02;;;;;;;16.60;10.00;;;12.50;99.90;;;;;;8400253;28;20440;-70
2022/10/22 06:55:03;;;;;;;15.43;9.93;;;12.60;99.90;;;;;;8398175;28;20180;-71
2022/10/22 06:59:04;;;;;;;17.67;10.97;;;12.60;99.90;;;;;;8416260;28;20204;-70
2022/10/22 07:03:05;;;;;;;16.83;10.00;;;12.60;99.90;;;;;;8397623;28;20216;-69
2022/10/22 07:07:06;;;;;;;17.87;11.77;;;12.70;99.90;;;;;;8393350;28;20193;-69
2022/10/22 07:11:09;;;;;;;15.17;9.90;;;12.70;99.90;;;;;;8417283;28;20187;-70
2022/10/22 07:15:10;;;;;;;15.10;10.50;;;12.80;99.90;;;;;;8398542;28;20280;-70
2022/10/22 07:19:11;;;;;;;18.07;11.27;;;12.80;99.90;;;;;;8416759;28;20184;-70
2022/10/22 07:23:12;;;;;;;15.33;10.40;;;12.80;99.90;;;;;;8394762;28;20211;-69
2022/10/22 07:27:13;;;;;;;18.07;10.53;;;12.90;99.90;;;;;;8397616;28;20176;-70
2022/10/22 07:31:15;;;;;;;18.03;10.57;;;12.90;99.90;;;;;;8415562;28;20180;-69
2022/10/22 07:35:16;;;;;;;15.90;10.83;;;12.90;99.90;;;;;;8395659;28;20177;-71
2022/10/22 07:39:17;;;;;;;18.00;10.93;;;13.00;99.90;;;;;;8398129;28;20435;-71
2022/10/22 07:43:17;;;;;;;15.73;10.17;;;13.00;99.90;;;;;;8392555;28;20244;-69
2022/10/22 07:47:18;;;;;;;17.50;11.10;;;13.00;99.90;;;;;;8398339;28;20217;-70
2022/10/22 07:51:19;;;;;;;16.50;11.10;;;13.00;99.90;;;;;;8401189;28;20235;-69
2022/10/22 07:55:20;;;;;;;18.13;11.13;;;12.90;99.90;;;;;;8418948;28;20251;-69
2022/10/22 07:59:21;;;;;;;19.60;12.07;;;12.90;99.90;;;;;;8413147;28;20247;-71
2022/10/22 08:03:21;;;;;;;19.10;11.73;;;12.80;99.90;;;;;;8416731;28;20211;-70
2022/10/22 08:07:22;;;;;;;20.83;12.70;;;12.80;99.90;;;;;;8398378;28;20189;-70
2022/10/22 08:11:24;;;;;;;22.63;13.20;;;12.90;99.90;;;;;;8396949;28;20196;-69
2022/10/22 08:15:26;;;;;;;18.90;11.60;;;12.90;99.90;;;;;;8397269;28;20224;-70
2022/10/22 08:19:28;;;;;;;20.07;12.40;;;12.90;99.90;;;;;;8395827;28;20192;-70
2022/10/22 08:23:29;;;;;;;20.13;12.63;;;13.00;99.90;;;;;;8398528;28;20219;-69
2022/10/22 08:27:30;;;;;;;24.00;13.03;;;12.90;99.90;;;;;;8395047;28;20180;-70
2022/10/22 08:31:31;;;;;;;24.63;13.20;;;12.90;99.90;;;;;;8415109;28;20294;-70
2022/10/22 08:35:31;;;;;;;18.40;12.63;;;13.00;99.90;;;;;;8396686;28;20505;-69
2022/10/22 08:39:33;;;;;;;23.63;12.40;;;13.10;99.90;;;;;;8415184;28;20191;-70
2022/10/22 08:43:52;;;;;;;25.13;13.03;;;13.10;99.90;;;;;;8389131;28;20230;-70
2022/10/22 08:47:58;;;;;;;21.63;12.90;;;13.10;99.90;;;;;;8409879;28;20188;-69
2022/10/22 08:51:59;;;;;;;20.53;12.53;;;13.00;99.90;;;;;;8397290;28;20430;-70
2022/10/22 08:56:00;;;;;;;25.90;13.27;;;13.00;99.90;;;;;;8394389;28;20241;-69
2022/10/22 09:00:19;;;;;;;20.03;11.63;;;13.00;99.90;;;;;;8395191;28;20306;-70
2022/10/22 09:04:25;;;;;;;19.47;12.00;;;12.90;99.90;;;;;;8411244;28;20238;-69
2022/10/22 09:08:26;;;;;;;23.73;12.33;;;12.90;99.90;;;;;;8409940;28;20182;-69
2022/10/22 09:12:27;;;;;;;21.00;11.53;;;12.90;99.90;;;;;;8410369;28;20192;-69
2022/10/22 09:16:59;;;;;;;17.97;11.37;;;12.90;99.90;;;;;;8393228;28;20262;-70
2022/10/22 09:21:12;;;;;;;18.13;11.57;;;12.80;99.90;;;;;;8413408;28;20227;-69
2022/10/22 09:25:28;;;;;;;18.37;11.13;;;12.70;99.90;;;;;;8409552;28;20216;-69
2022/10/22 09:29:33;;;;;;;20.07;11.37;;;12.70;99.90;;;;;;8410468;28;20241;-68
2022/10/22 09:33:33;;;;;;;23.33;12.33;;;12.60;99.90;;;;;;8390690;28;20233;-68
2022/10/22 09:37:34;;;;;;;21.27;12.00;;;12.70;99.90;;;;;;8395445;28;20189;-68
2022/10/22 09:41:35;;;;;;;17.10;10.33;;;12.80;99.90;;;;;;8394620;28;20184;-68
2022/10/22 09:45:36;;;;;;;16.27;10.03;;;12.80;99.90;;;;;;8395097;28;20241;-69
2022/10/22 09:49:37;;;;;;;19.63;10.83;;;12.90;99.90;;;;;;8394587;28;20188;-68
2022/10/22 09:53:43;;;;;;;18.20;11.03;;;13.10;99.90;;;;;;8394123;28;20184;-68
2022/10/22 09:57:53;;;;;;;18.50;10.40;;;13.20;99.90;;;;;;8394297;28;20212;-68
2022/10/22 10:02:10;;;;;;;18.13;10.17;;;13.40;99.90;;;;;;8412479;28;20212;-69
2022/10/22 10:06:11;;;;;;;17.93;10.27;;;13.50;99.90;;;;;;8393102;28;20486;-69
2022/10/22 10:10:52;;;;;;;14.90;9.13;;;13.70;99.90;;;;;;8396159;28;20573;-69
2022/10/22 10:15:04;;;;;;;11.50;8.20;;;13.80;99.90;;;;;;8351802;28;20292;-72
2022/10/22 10:19:38;;;;;;;15.10;9.03;;;13.80;99.90;;;;;;8404268;28;20169;-69
2022/10/22 10:24:07;;;;;;;15.27;8.57;;;13.60;99.90;;;;;;8400262;28;20207;-68
2022/10/22 10:28:27;;;;;;;13.13;8.57;;;13.50;99.90;;;;;;8415012;28;20565;-68
2022/10/22 10:32:52;;;;;;;13.27;7.67;;;13.20;99.90;;;;;;8400963;28;20181;-69
2022/10/22 10:36:59;;;;;;;11.77;7.87;;;13.10;99.90;;;;;;8400038;28;20173;-68
2022/10/22 10:41:19;;;;;;;13.87;8.07;;;13.10;99.90;;;;;;8401667;28;20185;-69
2022/10/22 10:45:41;;;;;;;10.13;7.27;;;13.00;99.90;;;;;;8418230;28;20254;-70
2022/10/22 10:49:43;;;;;;;11.50;8.17;;;12.90;99.90;;;;;;8399162;28;20272;-69
2022/10/22 10:53:43;;;;;;;11.03;7.87;;;12.90;99.90;;;;;;8420201;28;20192;-69
2022/10/22 10:57:55;;;;;;;12.43;7.07;;;13.00;99.90;;;;;;8395759;28;20222;-69
2022/10/22 11:02:15;;;;;;;6.53;5.27;;;12.90;99.90;;;;;;8414762;28;20250;-68
2022/10/22 11:06:19;;;;;;;7.37;5.30;;;12.90;99.90;;;;;;8398294;28;20172;-68
2022/10/22 11:10:28;;;;;;;8.77;6.00;;;13.00;99.90;;;;;;8412013;28;20545;-69
2022/10/22 11:14:37;;;;;;;9.27;5.70;;;13.00;99.90;;;;;;8393681;28;20188;-69
2022/10/22 11:18:44;;;;;;;8.80;5.73;;;13.10;99.90;;;;;;8395980;28;20215;-68
2022/10/22 11:23:05;;;;;;;8.50;5.60;;;13.30;99.90;;;;;;8410443;28;20285;-68
2022/10/22 11:27:13;;;;;;;8.87;5.83;;;13.40;99.90;;;;;;8393848;28;20192;-68
2022/10/22 11:31:16;;;;;;;6.47;5.20;;;13.60;99.90;;;;;;8396192;28;20192;-67
2022/10/22 11:35:33;;;;;;;6.77;5.40;;;13.90;99.90;;;;;;8392838;28;20188;-69
2022/10/22 11:39:41;;;;;;;6.60;5.07;;;14.20;99.90;;;;;;8395861;28;20189;-68
2022/10/22 11:43:58;;;;;;;8.67;5.40;;;14.30;99.90;;;;;;8413880;28;20209;-68
2022/10/22 11:48:17;;;;;;;5.53;4.40;;;14.50;99.90;;;;;;8394378;28;20219;-68
2022/10/22 11:52:29;;;;;;;9.80;4.90;;;14.70;99.90;;;;;;8413404;28;20279;-69
2022/10/22 11:56:38;;;;;;;5.43;4.60;;;14.60;99.90;;;;;;8395924;28;20189;-69
2022/10/22 12:00:45;;;;;;;5.20;4.70;;;14.80;99.90;;;;;;8392451;28;20188;-68
2022/10/22 12:04:46;;;;;;;6.77;4.37;;;14.80;99.90;;;;;;8385213;28;319201;-68
2022/10/22 12:08:53;;;;;;;5.17;4.37;;;14.80;99.90;;;;;;8395318;28;20216;-69
2022/10/22 12:13:12;;;;;;;4.80;4.17;;;14.70;99.90;;;;;;8398068;28;20276;-68
2022/10/22 12:17:15;;;;;;;5.33;4.37;;;14.60;99.90;;;;;;8414427;28;20191;-69
2022/10/22 12:21:16;;;;;;;5.03;4.17;;;14.60;99.90;;;;;;8397332;28;20189;-69
2022/10/22 12:25:30;;;;;;;6.43;4.07;;;14.50;99.90;;;;;;8414193;28;20266;-68
2022/10/22 12:29:32;;;;;;;5.47;3.77;;;14.60;99.90;;;;;;8394423;28;20185;-69
2022/10/22 12:33:32;;;;;;;8.47;4.40;;;14.50;99.90;;;;;;8395149;28;20195;-69
2022/10/22 12:37:37;;;;;;;6.30;3.93;;;14.50;99.90;;;;;;8394895;28;20192;-69
2022/10/22 12:41:39;;;;;;;4.20;3.80;;;14.60;99.90;;;;;;8414501;28;20212;-69
2022/10/22 12:45:41;;;;;;;5.60;3.77;;;14.70;99.90;;;;;;8394191;28;20265;-69
2022/10/22 12:49:48;;;;;;;5.13;4.00;;;14.90;99.90;;;;;;8394055;28;20480;-70
2022/10/22 12:53:52;;;;;;;4.27;3.73;;;15.00;99.90;;;;;;8410062;28;20253;-69
2022/10/22 12:57:53;;;;;;;6.33;3.77;;;15.10;99.90;;;;;;8390970;28;20208;-69
2022/10/22 13:01:55;;;;;;;4.80;3.83;;;15.10;99.90;;;;;;8412248;28;20239;-69
2022/10/22 13:05:56;;;;;;;5.07;3.97;;;15.00;99.90;;;;;;8392614;28;20438;-69
2022/10/22 13:09:59;;;;;;;7.50;4.33;;;14.90;99.90;;;;;;8393160;28;20173;-70
2022/10/22 13:14:05;;;;;;;5.43;4.30;;;14.90;99.90;;;;;;8392040;28;20234;-69
2022/10/22 13:18:15;;;;;;;5.27;4.20;;;15.00;99.90;;;;;;8394750;28;20176;-70
2022/10/22 13:22:28;;;;;;;5.27;4.63;;;15.00;99.90;;;;;;8395690;28;20268;-69
2022/10/22 13:26:35;;;;;;;5.10;4.60;;;15.00;99.90;;;;;;8411774;28;20177;-70
2022/10/22 13:30:38;;;;;;;9.03;4.33;;;15.00;99.90;;;;;;8411403;28;20616;-69
2022/10/22 13:34:39;;;;;;;5.27;4.33;;;15.10;99.90;;;;;;8410588;28;20219;-69
2022/10/22 13:38:41;;;;;;;4.30;3.90;;;15.20;99.90;;;;;;8413170;28;20573;-69
2022/10/22 13:42:42;;;;;;;6.57;4.37;;;15.20;99.90;;;;;;8395681;28;20200;-69
2022/10/22 13:46:43;;;;;;;4.60;4.07;;;15.40;99.90;;;;;;8412694;28;20180;-69
2022/10/22 13:50:44;;;;;;;5.03;4.13;;;15.50;99.90;;;;;;8413141;28;20208;-69
2022/10/22 13:54:45;;;;;;;3.83;3.43;;;15.50;99.90;;;;;;8411116;28;20233;-70
2022/10/22 13:58:47;;;;;;;5.93;4.47;;;15.50;99.90;;;;;;8390767;28;20203;-69
2022/10/22 14:02:52;;;;;;;7.97;4.03;;;15.40;99.90;;;;;;8413385;28;20273;-69
2022/10/22 14:06:53;;;;;;;4.30;3.60;;;15.40;99.90;;;;;;8395384;28;20177;-69
2022/10/22 14:10:54;;;;;;;6.90;4.77;;;15.40;99.90;;;;;;8411657;28;20179;-69
2022/10/22 14:14:55;;;;;;;4.37;3.97;;;15.30;99.90;;;;;;8412506;28;20188;-69
2022/10/22 14:18:56;;;;;;;7.47;4.50;;;15.40;99.90;;;;;;8411855;28;20184;-70
2022/10/22 14:23:11;;;;;;;7.17;4.07;;;15.40;99.90;;;;;;8412287;28;20208;-69
2022/10/22 14:27:14;;;;;;;4.60;3.80;;;15.50;99.90;;;;;;8394469;28;20281;-70
2022/10/22 14:31:15;;;;;;;5.23;4.20;;;15.50;99.90;;;;;;8413569;28;20210;-69
2022/10/22 14:35:21;;;;;;;4.53;4.03;;;15.40;99.90;;;;;;8394984;28;20233;-69
2022/10/22 14:39:22;;;;;;;5.50;4.40;;;15.40;99.90;;;;;;8395628;28;20187;-70
2022/10/22 14:43:27;;;;;;;5.37;4.43;;;15.30;99.90;;;;;;8394189;28;20201;-69
2022/10/22 14:47:28;;;;;;;6.10;4.63;;;15.20;99.90;;;;;;8393476;28;20181;-69
2022/10/22 14:51:29;;;;;;;5.63;4.20;;;15.10;99.90;;;;;;8395282;28;20241;-71
2022/10/22 14:55:30;;;;;;;5.50;4.33;;;15.20;99.90;;;;;;8413331;28;20268;-71
2022/10/22 14:59:31;;;;;;;7.00;4.07;;;15.20;99.90;;;;;;8414546;28;20212;-70
2022/10/22 15:03:32;;;;;;;3.87;3.33;;;15.20;99.90;;;;;;8397922;28;20208;-70
2022/10/22 15:07:33;;;;;;;5.10;3.83;;;15.20;99.90;;;;;;8412290;28;20208;-70
2022/10/22 15:11:34;;;;;;;4.83;4.07;;;15.30;99.90;;;;;;8414197;28;20192;-70
2022/10/22 15:15:35;;;;;;;5.90;4.13;;;15.20;99.90;;;;;;8398697;28;21058;-70
2022/10/22 15:19:36;;;;;;;4.47;3.73;;;15.10;99.90;;;;;;8416456;28;20176;-70
2022/10/22 15:23:38;;;;;;;6.10;3.97;;;15.10;99.90;;;;;;8415687;28;20216;-70
2022/10/22 15:27:39;;;;;;;6.27;3.97;;;15.00;99.90;;;;;;8415716;28;20173;-70
2022/10/22 15:31:46;;;;;;;4.77;3.70;;;14.80;99.90;;;;;;8398209;28;20188;-71
2022/10/22 15:35:46;;;;;;;6.07;4.10;;;14.80;99.90;;;;;;8398449;28;20168;-70
2022/10/22 15:39:48;;;;;;;4.97;4.33;;;14.70;99.90;;;;;;8411044;28;20216;-70
2022/10/22 15:43:48;;;;;;;6.27;5.33;;;14.70;99.90;;;;;;8398180;28;20588;-70
2022/10/22 15:47:49;;;;;;;4.87;4.20;;;14.60;99.90;;;;;;8396233;28;20185;-70
2022/10/22 15:51:50;;;;;;;7.07;5.77;;;14.40;99.90;;;;;;8396473;28;20180;-70
2022/10/22 15:55:54;;;;;;;9.70;5.70;;;14.20;99.90;;;;;;8396524;28;20184;-69
2022/10/22 15:59:54;;;;;;;6.83;5.00;;;14.00;99.90;;;;;;8394781;28;20224;-70
2022/10/22 16:04:04;;;;;;;6.67;5.97;;;13.90;99.90;;;;;;8415217;28;20216;-69
2022/10/22 16:08:05;;;;;;;7.07;6.27;;;13.80;99.90;;;;;;8412500;28;20180;-70
2022/10/22 16:12:06;;;;;;;8.10;6.97;;;13.70;99.90;;;;;;8397073;28;20177;-70
2022/10/22 16:16:07;;;;;;;8.17;6.57;;;13.60;99.90;;;;;;8412425;28;20191;-69
2022/10/22 16:20:08;;;;;;;9.43;7.00;;;13.40;99.90;;;;;;8415732;28;20294;-70
2022/10/22 16:24:10;;;;;;;9.03;7.90;;;13.30;99.90;;;;;;8414331;28;20236;-70
2022/10/22 16:28:11;;;;;;;8.83;7.83;;;13.20;99.90;;;;;;8395510;28;20184;-70
2022/10/22 16:32:14;;;;;;;10.00;7.83;;;13.10;99.90;;;;;;8415799;28;20184;-69
2022/10/22 16:36:18;;;;;;;10.97;8.23;;;12.90;99.90;;;;;;8394014;28;20223;-70
2022/10/22 16:40:19;;;;;;;9.97;8.53;;;12.70;99.90;;;;;;8395419;28;20187;-69
2022/10/22 16:44:20;;;;;;;13.40;10.57;;;12.60;99.90;;;;;;8413254;28;20212;-68
2022/10/22 16:48:21;;;;;;;14.93;10.93;;;12.40;99.90;;;;;;8414971;28;20267;-69
2022/10/22 16:52:21;;;;;;;15.77;11.53;;;12.30;99.90;;;;;;8396839;28;20191;-69
2022/10/22 16:56:23;;;;;;;14.77;11.83;;;12.30;99.90;;;;;;8394453;28;20218;-69
2022/10/22 17:00:24;;;;;;;15.33;12.77;;;12.20;99.90;;;;;;8390499;28;20180;-69
2022/10/22 17:04:25;;;;;;;15.43;12.10;;;12.10;99.90;;;;;;8396177;28;20357;-69
2022/10/22 17:08:26;;;;;;;19.13;13.93;;;12.10;99.90;;;;;;8393097;28;20184;-70
2022/10/22 17:12:33;;;;;;;16.07;13.03;;;12.00;99.90;;;;;;8412061;28;20191;-69
2022/10/22 17:16:34;;;;;;;14.80;12.17;;;12.00;99.90;;;;;;8393309;28;20250;-70
2022/10/22 17:20:39;;;;;;;15.60;12.27;;;11.90;99.90;;;;;;8391160;28;20230;-69
2022/10/22 17:24:42;;;;;;;20.40;13.60;;;11.90;99.90;;;;;;8395641;28;20264;-69
2022/10/22 17:28:43;;;;;;;22.03;15.10;;;11.80;99.90;;;;;;8392547;28;20451;-70
2022/10/22 17:32:44;;;;;;;23.10;16.57;;;11.80;99.90;;;;;;8392427;28;20180;-70
2022/10/22 17:36:45;;;;;;;21.00;16.77;;;11.70;99.90;;;;;;8391974;28;20466;-70
2022/10/22 17:40:46;;;;;;;21.53;15.47;;;11.70;99.90;;;;;;8411813;28;20187;-69
2022/10/22 17:44:47;;;;;;;21.30;16.93;;;11.70;99.90;;;;;;8397264;28;20208;-69
2022/10/22 17:48:49;;;;;;;21.97;16.63;;;11.60;99.90;;;;;;8408999;28;20180;-70
2022/10/22 17:52:50;;;;;;;24.90;18.23;;;11.60;99.90;;;;;;8393538;28;20248;-71
2022/10/22 17:56:51;;;;;;;22.60;17.40;;;11.60;99.90;;;;;;8409308;28;20257;-69
2022/10/22 18:00:52;;;;;;;22.40;16.90;;;11.60;99.90;;;;;;8384985;28;20184;-69
2022/10/22 18:04:53;;;;;;;23.53;17.23;;;11.50;99.90;;;;;;8394041;28;20208;-70
2022/10/22 18:08:54;;;;;;;21.50;16.87;;;11.50;99.90;;;;;;8388430;28;20173;-69
2022/10/22 18:12:55;;;;;;;21.33;16.23;;;11.40;99.90;;;;;;8394413;28;20165;-69
2022/10/22 18:16:56;;;;;;;21.40;15.80;;;11.40;99.90;;;;;;8390006;28;20187;-69
2022/10/22 18:20:57;;;;;;;20.73;15.03;;;11.30;99.90;;;;;;8411768;28;20186;-70
2022/10/22 18:24:58;;;;;;;20.43;15.57;;;11.30;99.90;;;;;;8392943;28;20297;-70
2022/10/22 18:28:59;;;;;;;19.57;14.53;;;11.30;99.90;;;;;;8392277;28;20200;-71
2022/10/22 18:32:59;;;;;;;18.00;14.37;;;11.30;99.90;;;;;;8414594;28;20180;-69
2022/10/22 18:37:00;;;;;;;17.47;13.10;;;11.30;99.90;;;;;;8398125;28;20181;-69
2022/10/22 18:41:01;;;;;;;17.90;13.77;;;11.20;99.90;;;;;;8402222;28;20184;-69
2022/10/22 18:45:03;;;;;;;18.00;13.17;;;11.10;99.90;;;;;;8415385;28;20203;-69
2022/10/22 18:49:05;;;;;;;18.40;13.37;;;11.10;99.90;;;;;;8415975;28;20248;-69
2022/10/22 18:53:06;;;;;;;18.40;13.43;;;11.00;99.90;;;;;;8398934;28;20180;-70
2022/10/22 18:57:07;;;;;;;17.47;12.63;;;11.00;99.90;;;;;;8396353;28;20302;-69
2022/10/22 19:01:13;;;;;;;14.90;11.47;;;11.00;99.90;;;;;;8412627;28;20180;-70
2022/10/22 19:05:14;;;;;;;16.57;13.43;;;11.00;99.90;;;;;;8415845;28;20261;-69
2022/10/22 19:09:16;;;;;;;19.57;12.63;;;11.00;99.90;;;;;;8398068;28;20192;-69
2022/10/22 19:13:21;;;;;;;17.20;12.63;;;11.00;99.90;;;;;;8415230;28;20193;-69
2022/10/22 19:17:23;;;;;;;17.27;13.80;;;10.90;99.90;;;;;;8395431;28;20184;-70
2022/10/22 19:21:24;;;;;;;19.00;13.73;;;10.90;99.90;;;;;;8397951;28;20215;-70
2022/10/22 19:25:25;;;;;;;19.83;13.70;;;10.90;99.90;;;;;;8417526;28;20196;-70
2022/10/22 19:29:26;;;;;;;17.87;13.33;;;10.80;99.90;;;;;;8396540;28;20318;-70
2022/10/22 19:33:27;;;;;;;17.17;13.53;;;10.80;99.90;;;;;;8394712;28;20180;-69
2022/10/22 19:37:28;;;;;;;19.43;13.20;;;10.80;99.90;;;;;;8393296;28;20290;-70
2022/10/22 19:41:30;;;;;;;18.30;13.83;;;10.70;99.90;;;;;;8397968;28;20223;-70
2022/10/22 19:45:31;;;;;;;17.17;13.23;;;10.80;99.90;;;;;;8415847;28;20281;-68
2022/10/22 19:49:32;;;;;;;17.10;13.70;;;10.70;99.90;;;;;;8415432;28;20176;-68
2022/10/22 19:53:35;;;;;;;19.40;13.77;;;10.70;99.90;;;;;;8397132;28;20180;-68
2022/10/22 19:57:37;;;;;;;18.80;14.07;;;10.70;99.90;;;;;;8395017;28;20447;-68
2022/10/22 20:01:38;;;;;;;18.47;14.07;;;10.70;99.90;;;;;;8414084;28;20203;-68
2022/10/22 20:05:39;;;;;;;20.17;14.60;;;10.70;99.90;;;;;;8411440;28;20216;-68
2022/10/22 20:09:41;;;;;;;17.67;13.27;;;10.70;99.90;;;;;;8396544;28;20712;-69
2022/10/22 20:13:42;;;;;;;17.17;13.93;;;10.80;99.90;;;;;;8397154;28;20184;-68
2022/10/22 20:17:43;;;;;;;19.90;14.17;;;10.80;99.90;;;;;;8394137;28;20183;-69
2022/10/22 20:21:44;;;;;;;16.43;13.30;;;10.80;99.90;;;;;;8412662;28;20414;-69
2022/10/22 20:25:46;;;;;;;17.80;13.30;;;10.80;99.90;;;;;;8413506;28;20211;-69
2022/10/22 20:29:47;;;;;;;16.50;12.37;;;10.90;99.90;;;;;;8394742;28;20208;-69
2022/10/22 20:33:52;;;;;;;15.80;12.33;;;10.80;99.90;;;;;;8401577;28;20180;-68
2022/10/22 20:37:53;;;;;;;19.27;12.43;;;10.80;99.90;;;;;;8395482;28;20186;-69
2022/10/22 20:41:53;;;;;;;19.27;13.37;;;10.80;99.90;;;;;;8395170;28;20208;-68
2022/10/22 20:45:54;;;;;;;17.17;13.40;;;10.80;99.90;;;;;;8413051;28;20184;-69